sensor_id;sensor_type;location;lat;lon;timestamp;pressure;altitude;pressure_sealevel;temperature;humidity
75420;BME280;63998;52.488;13.428;2022-10-16T00:01:30;100644.81;;;15.52;78.72
75420;BME280;63998;52.488;13.428;2022-10-16T00:03:57;100650.03;;;15.52;78.51
75420;BME280;63998;52.488;13.428;2022-10-16T00:06:24;100648.38;;;15.48;78.59
75420;BME280;63998;52.488;13.428;2022-10-16T00:08:50;100655.34;;;15.49;78.57
75420;BME280;63998;52.488;13.428;2022-10-16T00:11:23;100653.56;;;15.51;78.62
75420;BME280;63998;52.488;13.428;2022-10-16T00:13:51;100655.34;;;15.49;78.89
75420;BME280;63998;52.488;13.428;2022-10-16T00:16:17;100657.06;;;15.50;79.02
75420;BME280;63998;52.488;13.428;2022-10-16T00:18:43;100665.81;;;15.49;78.95
75420;BME280;63998;52.488;13.428;2022-10-16T00:23:34;100657.88;;;15.55;78.94
75420;BME280;63998;52.488;13.428;2022-10-16T00:26:02;100653.38;;;15.61;78.74
75420;BME280;63998;52.488;13.428;2022-10-16T00:28:28;100665.63;;;15.59;78.72
75420;BME280;63998;52.488;13.428;2022-10-16T00:30:56;100672.50;;;15.65;78.81
75420;BME280;63998;52.488;13.428;2022-10-16T00:33:21;100678.53;;;15.70;78.70
75420;BME280;63998;52.488;13.428;2022-10-16T00:35:47;100676.84;;;15.67;78.33
75420;BME280;63998;52.488;13.428;2022-10-16T00:38:13;100678.41;;;15.74;78.26
75420;BME280;63998;52.488;13.428;2022-10-16T00:40:38;100683.69;;;15.73;78.11
75420;BME280;63998;52.488;13.428;2022-10-16T00:43:32;100677.53;;;15.75;78.08
75420;BME280;63998;52.488;13.428;2022-10-16T00:45:58;100677.50;;;15.77;78.15
75420;BME280;63998;52.488;13.428;2022-10-16T00:48:24;100667.81;;;15.82;77.98
75420;BME280;63998;52.488;13.428;2022-10-16T00:50:55;100666.09;;;15.79;77.92
75420;BME280;63998;52.488;13.428;2022-10-16T00:53:24;100677.34;;;15.83;78.20
75420;BME280;63998;52.488;13.428;2022-10-16T00:55:51;100675.66;;;15.82;78.17
75420;BME280;63998;52.488;13.428;2022-10-16T00:58:16;100676.47;;;15.84;77.99
75420;BME280;63998;52.488;13.428;2022-10-16T01:00:42;100685.19;;;15.85;78.15
75420;BME280;63998;52.488;13.428;2022-10-16T01:03:44;100686.88;;;15.87;77.84
75420;BME280;63998;52.488;13.428;2022-10-16T01:09:11;100690.19;;;15.95;77.95
75420;BME280;63998;52.488;13.428;2022-10-16T01:11:45;100695.53;;;15.92;77.48
75420;BME280;63998;52.488;13.428;2022-10-16T01:14:38;100672.81;;;15.93;77.87
75420;BME280;63998;52.488;13.428;2022-10-16T01:17:11;100678.09;;;15.91;77.77
75420;BME280;63998;52.488;13.428;2022-10-16T01:22:18;100699.78;;;15.96;77.56
75420;BME280;63998;52.488;13.428;2022-10-16T01:24:49;100692.81;;;15.95;77.60
75420;BME280;63998;52.488;13.428;2022-10-16T01:29:52;100699.09;;;15.88;77.87
75420;BME280;63998;52.488;13.428;2022-10-16T01:32:30;100702.59;;;15.87;77.81
75420;BME280;63998;52.488;13.428;2022-10-16T01:35:18;100703.63;;;15.80;77.81
75420;BME280;63998;52.488;13.428;2022-10-16T01:38:02;100711.56;;;15.75;78.06
75420;BME280;63998;52.488;13.428;2022-10-16T01:40:29;100707.25;;;15.73;78.26
75420;BME280;63998;52.488;13.428;2022-10-16T01:43:03;100710.75;;;15.72;78.46
75420;BME280;63998;52.488;13.428;2022-10-16T01:45:33;100711.81;;;15.63;78.85
75420;BME280;63998;52.488;13.428;2022-10-16T01:48:00;100711.09;;;15.57;78.93
75420;BME280;63998;52.488;13.428;2022-10-16T01:50:33;100715.44;;;15.58;79.20
75420;BME280;63998;52.488;13.428;2022-10-16T01:53:02;100710.09;;;15.61;79.35
75420;BME280;63998;52.488;13.428;2022-10-16T01:55:32;100711.03;;;15.58;79.41
75420;BME280;63998;52.488;13.428;2022-10-16T01:58:03;100718.06;;;15.58;79.45
75420;BME280;63998;52.488;13.428;2022-10-16T02:00:30;100721.47;;;15.60;79.03
75420;BME280;63998;52.488;13.428;2022-10-16T02:02:59;100728.41;;;15.62;79.21
75420;BME280;63998;52.488;13.428;2022-10-16T02:05:34;100731.03;;;15.62;79.14
75420;BME280;63998;52.488;13.428;2022-10-16T02:08:05;100719.66;;;15.65;78.91
75420;BME280;63998;52.488;13.428;2022-10-16T02:10:31;100716.13;;;15.66;78.77
75420;BME280;63998;52.488;13.428;2022-10-16T02:13:03;100730.06;;;15.68;78.85
75420;BME280;63998;52.488;13.428;2022-10-16T02:15:30;100735.34;;;15.65;78.83
75420;BME280;63998;52.488;13.428;2022-10-16T02:17:58;100744.09;;;15.64;79.13
75420;BME280;63998;52.488;13.428;2022-10-16T02:20:27;100744.22;;;15.58;79.21
75420;BME280;63998;52.488;13.428;2022-10-16T02:22:54;100752.13;;;15.55;79.61
75420;BME280;63998;52.488;13.428;2022-10-16T02:25:30;100760.84;;;15.54;79.82
75420;BME280;63998;52.488;13.428;2022-10-16T02:28:16;100758.22;;;15.54;79.67
75420;BME280;63998;52.488;13.428;2022-10-16T02:30:52;100751.25;;;15.53;79.41
75420;BME280;63998;52.488;13.428;2022-10-16T02:33:25;100742.50;;;15.54;79.56
75420;BME280;63998;52.488;13.428;2022-10-16T02:35:53;100740.78;;;15.53;79.78
75420;BME280;63998;52.488;13.428;2022-10-16T02:38:20;100737.28;;;15.54;79.72
75420;BME280;63998;52.488;13.428;2022-10-16T02:40:46;100741.69;;;15.50;79.70
75420;BME280;63998;52.488;13.428;2022-10-16T02:43:14;100753.03;;;15.51;79.77
75420;BME280;63998;52.488;13.428;2022-10-16T02:45:40;100752.13;;;15.53;79.55
75420;BME280;63998;52.488;13.428;2022-10-16T02:48:06;100749.50;;;15.55;79.57
75420;BME280;63998;52.488;13.428;2022-10-16T02:50:31;100756.50;;;15.53;79.66
75420;BME280;63998;52.488;13.428;2022-10-16T02:52:56;100759.06;;;15.57;79.29
75420;BME280;63998;52.488;13.428;2022-10-16T02:55:24;100751.25;;;15.56;79.32
75420;BME280;63998;52.488;13.428;2022-10-16T02:57:49;100752.97;;;15.57;79.71
75420;BME280;63998;52.488;13.428;2022-10-16T03:00:17;100756.47;;;15.56;79.59
75420;BME280;63998;52.488;13.428;2022-10-16T03:02:42;100754.75;;;15.55;79.55
75420;BME280;63998;52.488;13.428;2022-10-16T03:05:09;100749.47;;;15.58;79.21
75420;BME280;63998;52.488;13.428;2022-10-16T03:07:34;100751.25;;;15.53;79.62
75420;BME280;63998;52.488;13.428;2022-10-16T03:10:00;100753.00;;;15.54;79.36
75420;BME280;63998;52.488;13.428;2022-10-16T03:12:26;100765.25;;;15.52;79.75
75420;BME280;63998;52.488;13.428;2022-10-16T03:14:55;100768.88;;;15.44;79.45
75420;BME280;63998;52.488;13.428;2022-10-16T03:17:20;100768.78;;;15.48;79.86
75420;BME280;63998;52.488;13.428;2022-10-16T03:19:45;100776.56;;;15.52;79.72
75420;BME280;63998;52.488;13.428;2022-10-16T03:22:11;100773.09;;;15.52;79.25
75420;BME280;63998;52.488;13.428;2022-10-16T03:24:36;100777.53;;;15.46;79.51
75420;BME280;63998;52.488;13.428;2022-10-16T03:27:01;100771.41;;;15.48;79.63
75420;BME280;63998;52.488;13.428;2022-10-16T03:29:27;100774.88;;;15.48;79.53
75420;BME280;63998;52.488;13.428;2022-10-16T03:31:56;100776.66;;;15.48;79.33
75420;BME280;63998;52.488;13.428;2022-10-16T03:34:22;100790.69;;;15.45;79.39
75420;BME280;63998;52.488;13.428;2022-10-16T03:36:47;100797.66;;;15.44;79.52
75420;BME280;63998;52.488;13.428;2022-10-16T03:39:15;100800.31;;;15.41;79.46
75420;BME280;63998;52.488;13.428;2022-10-16T03:41:40;100803.84;;;15.40;79.68
75420;BME280;63998;52.488;13.428;2022-10-16T03:44:08;100809.09;;;15.37;79.68
75420;BME280;63998;52.488;13.428;2022-10-16T03:46:34;100799.50;;;15.38;79.84
75420;BME280;63998;52.488;13.428;2022-10-16T03:49:02;100809.03;;;15.43;79.74
75420;BME280;63998;52.488;13.428;2022-10-16T03:51:27;100822.09;;;15.43;79.63
75420;BME280;63998;52.488;13.428;2022-10-16T03:53:53;100817.75;;;15.42;79.46
75420;BME280;63998;52.488;13.428;2022-10-16T03:56:18;100819.50;;;15.43;79.66
75420;BME280;63998;52.488;13.428;2022-10-16T03:58:46;100826.41;;;15.46;79.58
75420;BME280;63998;52.488;13.428;2022-10-16T04:01:13;100825.69;;;15.38;79.66
75420;BME280;63998;52.488;13.428;2022-10-16T04:03:41;100828.34;;;15.33;79.70
75420;BME280;63998;52.488;13.428;2022-10-16T04:06:06;100834.47;;;15.34;79.80
75420;BME280;63998;52.488;13.428;2022-10-16T04:08:32;100833.56;;;15.36;79.46
75420;BME280;63998;52.488;13.428;2022-10-16T04:11:01;100837.13;;;15.32;79.61
75420;BME280;63998;52.488;13.428;2022-10-16T04:13:27;100847.72;;;15.23;80.29
75420;BME280;63998;52.488;13.428;2022-10-16T04:15:54;100844.19;;;15.27;80.21
75420;BME280;63998;52.488;13.428;2022-10-16T04:18:22;100844.13;;;15.30;80.02
75420;BME280;63998;52.488;13.428;2022-10-16T04:20:48;100844.13;;;15.30;79.75
75420;BME280;63998;52.488;13.428;2022-10-16T04:23:13;100849.41;;;15.27;79.95
75420;BME280;63998;52.488;13.428;2022-10-16T04:25:38;100844.22;;;15.24;79.89
75420;BME280;63998;52.488;13.428;2022-10-16T04:28:04;100844.13;;;15.30;79.83
75420;BME280;63998;52.488;13.428;2022-10-16T04:30:31;100836.25;;;15.32;79.86
75420;BME280;63998;52.488;13.428;2022-10-16T04:33:01;100829.34;;;15.28;79.69
75420;BME280;63998;52.488;13.428;2022-10-16T04:35:26;100821.44;;;15.32;79.95
75420;BME280;63998;52.488;13.428;2022-10-16T04:37:51;100838.94;;;15.27;79.40
75420;BME280;63998;52.488;13.428;2022-10-16T04:40:17;100816.22;;;15.29;79.85
75420;BME280;63998;52.488;13.428;2022-10-16T04:42:42;100816.22;;;15.29;79.55
75420;BME280;63998;52.488;13.428;2022-10-16T04:45:08;100818.94;;;15.22;79.78
75420;BME280;63998;52.488;13.428;2022-10-16T04:47:33;100816.44;;;15.16;79.88
75420;BME280;63998;52.488;13.428;2022-10-16T04:50:01;100809.47;;;15.16;79.97
75420;BME280;63998;52.488;13.428;2022-10-16T04:52:29;100823.44;;;15.15;80.12
75420;BME280;63998;52.488;13.428;2022-10-16T04:54:56;100823.50;;;15.09;80.25
75420;BME280;63998;52.488;13.428;2022-10-16T04:57:25;100819.16;;;15.09;80.12
75420;BME280;63998;52.488;13.428;2022-10-16T04:59:52;100821.81;;;15.08;79.90
75420;BME280;63998;52.488;13.428;2022-10-16T05:02:19;100828.72;;;15.12;80.03
75420;BME280;63998;52.488;13.428;2022-10-16T05:04:44;100836.69;;;15.04;80.36
75420;BME280;63998;52.488;13.428;2022-10-16T05:07:10;100845.44;;;15.00;80.54
75420;BME280;63998;52.488;13.428;2022-10-16T05:09:35;100854.31;;;14.90;80.66
75420;BME280;63998;52.488;13.428;2022-10-16T05:12:00;100863.09;;;14.86;81.03
75420;BME280;63998;52.488;13.428;2022-10-16T05:14:26;100863.94;;;14.88;81.31
75420;BME280;63998;52.488;13.428;2022-10-16T05:16:53;100865.72;;;14.85;81.06
75420;BME280;63998;52.488;13.428;2022-10-16T05:19:19;100863.09;;;14.86;81.09
75420;BME280;63998;52.488;13.428;2022-10-16T05:21:44;100868.25;;;14.91;80.85
75420;BME280;63998;52.488;13.428;2022-10-16T05:24:09;100866.69;;;14.79;80.88
75420;BME280;63998;52.488;13.428;2022-10-16T05:26:35;100864.13;;;14.74;81.28
75420;BME280;63998;52.488;13.428;2022-10-16T05:29:03;100858.91;;;14.71;81.36
75420;BME280;63998;52.488;13.428;2022-10-16T05:31:28;100858.88;;;14.74;81.57
75420;BME280;63998;52.488;13.428;2022-10-16T05:33:59;100865.84;;;14.76;81.38
75420;BME280;63998;52.488;13.428;2022-10-16T05:36:25;100860.59;;;14.79;81.34
75420;BME280;63998;52.488;13.428;2022-10-16T05:38:51;100857.16;;;14.73;81.31
75420;BME280;63998;52.488;13.428;2022-10-16T05:41:16;100866.69;;;14.79;81.28
75420;BME280;63998;52.488;13.428;2022-10-16T05:43:46;100867.59;;;14.77;81.22
75420;BME280;63998;52.488;13.428;2022-10-16T05:46:15;100865.88;;;14.72;81.41
75420;BME280;63998;52.488;13.428;2022-10-16T05:48:45;100878.94;;;14.74;81.33
75420;BME280;63998;52.488;13.428;2022-10-16T05:51:12;100887.81;;;14.62;81.73
75420;BME280;63998;52.488;13.428;2022-10-16T05:53:41;100878.13;;;14.70;81.59
75420;BME280;63998;52.488;13.428;2022-10-16T05:56:10;100878.88;;;14.79;81.32
75420;BME280;63998;52.488;13.428;2022-10-16T05:58:40;100876.25;;;14.82;81.01
75420;BME280;63998;52.488;13.428;2022-10-16T06:01:10;100881.47;;;14.82;81.04
75420;BME280;63998;52.488;13.428;2022-10-16T06:03:36;100878.06;;;14.73;80.90
75420;BME280;63998;52.488;13.428;2022-10-16T06:06:21;100882.50;;;14.68;81.26
75420;BME280;63998;52.488;13.428;2022-10-16T06:08:48;100880.75;;;14.70;81.57
75420;BME280;63998;52.488;13.428;2022-10-16T06:11:18;100874.56;;;14.74;81.33
75420;BME280;63998;52.488;13.428;2022-10-16T06:13:44;100888.44;;;14.83;81.26
75420;BME280;63998;52.488;13.428;2022-10-16T06:16:11;100884.84;;;14.88;80.85
75420;BME280;63998;52.488;13.428;2022-10-16T06:18:37;100891.78;;;14.94;80.94
75420;BME280;63998;52.488;13.428;2022-10-16T06:21:18;100894.31;;;14.98;81.18
75420;BME280;63998;52.488;13.428;2022-10-16T06:23:43;100903.84;;;15.02;80.66
75420;BME280;63998;52.488;13.428;2022-10-16T06:26:12;100908.09;;;15.09;80.35
75420;BME280;63998;52.488;13.428;2022-10-16T06:28:38;100897.59;;;15.14;80.30
75420;BME280;63998;52.488;13.428;2022-10-16T06:31:08;100890.53;;;15.19;79.89
75420;BME280;63998;52.488;13.428;2022-10-16T06:33:34;100896.50;;;15.27;79.79
75420;BME280;63998;52.488;13.428;2022-10-16T06:36:05;100910.41;;;15.32;79.35
75420;BME280;63998;52.488;13.428;2022-10-16T06:38:34;100915.69;;;15.29;79.62
75420;BME280;63998;52.488;13.428;2022-10-16T06:41:03;100922.69;;;15.27;79.71
75420;BME280;63998;52.488;13.428;2022-10-16T06:43:32;100922.66;;;15.29;79.47
75420;BME280;63998;52.488;13.428;2022-10-16T06:46:00;100929.63;;;15.31;79.74
75420;BME280;63998;52.488;13.428;2022-10-16T06:48:28;100939.22;;;15.31;79.52
75420;BME280;63998;52.488;13.428;2022-10-16T06:50:59;100943.59;;;15.30;79.60
75420;BME280;63998;52.488;13.428;2022-10-16T06:53:27;100932.97;;;15.39;79.51
75420;BME280;63998;52.488;13.428;2022-10-16T06:55:52;100939.94;;;15.42;79.35
75420;BME280;63998;52.488;13.428;2022-10-16T06:58:18;100939.94;;;15.40;79.46
75420;BME280;63998;52.488;13.428;2022-10-16T07:00:46;100936.47;;;15.38;79.45
75420;BME280;63998;52.488;13.428;2022-10-16T07:03:12;100949.53;;;15.41;79.70
75420;BME280;63998;52.488;13.428;2022-10-16T07:05:41;100943.50;;;15.36;79.47
75420;BME280;63998;52.488;13.428;2022-10-16T07:08:07;100945.16;;;15.43;79.70
75420;BME280;63998;52.488;13.428;2022-10-16T07:10:33;100948.47;;;15.56;79.43
75420;BME280;63998;52.488;13.428;2022-10-16T07:13:04;100960.59;;;15.62;79.48
75420;BME280;63998;52.488;13.428;2022-10-16T07:15:29;100970.84;;;15.77;78.88
75420;BME280;63998;52.488;13.428;2022-10-16T07:17:54;100972.41;;;15.87;78.50
75420;BME280;63998;52.488;13.428;2022-10-16T07:20:22;100966.97;;;15.99;78.14
75420;BME280;63998;52.488;13.428;2022-10-16T07:22:47;100970.41;;;16.04;78.18
75420;BME280;63998;52.488;13.428;2022-10-16T07:25:17;100959.06;;;16.04;77.71
75420;BME280;63998;52.488;13.428;2022-10-16T07:27:45;100978.31;;;16.00;77.51
75420;BME280;63998;52.488;13.428;2022-10-16T07:30:13;100963.31;;;16.09;77.98
75420;BME280;63998;52.488;13.428;2022-10-16T07:32:40;100974.53;;;16.17;77.22
75420;BME280;63998;52.488;13.428;2022-10-16T07:35:08;100971.72;;;16.30;77.63
75420;BME280;63998;52.488;13.428;2022-10-16T07:37:33;100960.34;;;16.31;77.37
75420;BME280;63998;52.488;13.428;2022-10-16T07:39:59;100957.72;;;16.31;77.09
75420;BME280;63998;52.488;13.428;2022-10-16T07:42:27;100973.44;;;16.31;77.25
75420;BME280;63998;52.488;13.428;2022-10-16T07:44:53;100972.44;;;16.38;77.18
75420;BME280;63998;52.488;13.428;2022-10-16T07:47:22;100977.66;;;16.39;76.97
75420;BME280;63998;52.488;13.428;2022-10-16T07:49:48;100985.50;;;16.41;77.11
75420;BME280;63998;52.488;13.428;2022-10-16T07:52:13;100961.00;;;16.42;77.01
75420;BME280;63998;52.488;13.428;2022-10-16T07:54:38;100965.19;;;16.50;77.06
75420;BME280;63998;52.488;13.428;2022-10-16T07:57:06;100981.81;;;16.51;76.59
75420;BME280;63998;52.488;13.428;2022-10-16T07:59:31;100980.88;;;16.53;76.65
75420;BME280;63998;52.488;13.428;2022-10-16T08:01:59;100959.75;;;16.63;76.38
75420;BME280;63998;52.488;13.428;2022-10-16T08:04:26;100972.72;;;16.70;75.62
75420;BME280;63998;52.488;13.428;2022-10-16T08:06:54;100983.19;;;16.70;75.70
75420;BME280;63998;52.488;13.428;2022-10-16T08:09:19;101001.63;;;16.69;75.88
75420;BME280;63998;52.488;13.428;2022-10-16T08:11:45;101001.50;;;16.73;75.83
75420;BME280;63998;52.488;13.428;2022-10-16T08:14:14;101013.72;;;16.76;75.40
75420;BME280;63998;52.488;13.428;2022-10-16T08:16:40;101016.34;;;16.74;75.27
75420;BME280;63998;52.488;13.428;2022-10-16T08:19:08;101012.91;;;16.72;75.58
75420;BME280;63998;52.488;13.428;2022-10-16T08:21:33;101011.16;;;16.71;76.01
75420;BME280;63998;52.488;13.428;2022-10-16T08:23:58;101004.19;;;16.70;75.82
75420;BME280;63998;52.488;13.428;2022-10-16T08:26:26;100996.22;;;16.76;75.78
75420;BME280;63998;52.488;13.428;2022-10-16T08:28:52;101004.91;;;16.80;75.67
75420;BME280;63998;52.488;13.428;2022-10-16T08:31:17;101005.63;;;16.86;75.51
75420;BME280;63998;52.488;13.428;2022-10-16T08:33:45;101000.19;;;16.96;75.33
75420;BME280;63998;52.488;13.428;2022-10-16T08:36:12;101005.38;;;16.99;74.86
75420;BME280;63998;52.488;13.428;2022-10-16T08:38:40;101010.69;;;16.96;74.73
75420;BME280;63998;52.488;13.428;2022-10-16T08:41:26;101011.56;;;16.96;75.07
75420;BME280;63998;52.488;13.428;2022-10-16T08:50:09;101010.63;;;16.99;75.15
75420;BME280;63998;52.488;13.428;2022-10-16T08:52:40;101014.03;;;17.04;74.92
75420;BME280;63998;52.488;13.428;2022-10-16T08:55:23;101019.19;;;17.07;74.54
75420;BME280;63998;52.488;13.428;2022-10-16T08:57:53;101019.25;;;17.05;74.46
75420;BME280;63998;52.488;13.428;2022-10-16T09:00:19;101014.16;;;16.98;74.56
75420;BME280;63998;52.488;13.428;2022-10-16T09:03:04;101035.16;;;16.98;74.15
75420;BME280;63998;52.488;13.428;2022-10-16T09:05:54;101036.84;;;17.00;74.38
75420;BME280;63998;52.488;13.428;2022-10-16T09:11:17;101033.03;;;17.16;74.17
75420;BME280;63998;52.488;13.428;2022-10-16T09:13:51;101039.78;;;17.28;73.41
75420;BME280;63998;52.488;13.428;2022-10-16T09:16:36;101041.56;;;17.26;72.69
75420;BME280;63998;52.488;13.428;2022-10-16T09:19:28;101059.13;;;17.24;73.04
75420;BME280;63998;52.488;13.428;2022-10-16T09:21:54;101054.56;;;17.32;73.01
75420;BME280;63998;52.488;13.428;2022-10-16T09:24:23;101053.66;;;17.33;72.22
75420;BME280;63998;52.488;13.428;2022-10-16T09:26:49;101047.66;;;17.28;72.72
75420;BME280;63998;52.488;13.428;2022-10-16T09:29:19;101057.13;;;17.35;72.12
75420;BME280;63998;52.488;13.428;2022-10-16T09:31:49;101043.88;;;17.41;72.18
75420;BME280;63998;52.488;13.428;2022-10-16T09:36:52;101046.31;;;17.50;72.14
75420;BME280;63998;52.488;13.428;2022-10-16T09:39:17;101052.34;;;17.55;71.60
75420;BME280;63998;52.488;13.428;2022-10-16T09:41:45;101063.75;;;17.54;71.22
75420;BME280;63998;52.488;13.428;2022-10-16T09:44:27;101065.47;;;17.55;71.18
75420;BME280;63998;52.488;13.428;2022-10-16T09:49:27;101061.22;;;17.90;70.30
75420;BME280;63998;52.488;13.428;2022-10-16T09:52:20;101080.72;;;17.80;69.83
75420;BME280;63998;52.488;13.428;2022-10-16T09:54:54;101073.88;;;17.73;70.07
75420;BME280;63998;52.488;13.428;2022-10-16T09:57:22;101090.47;;;17.75;70.09
75420;BME280;63998;52.488;13.428;2022-10-16T09:59:51;101087.78;;;17.78;70.11
75420;BME280;63998;52.488;13.428;2022-10-16T10:02:23;101078.09;;;17.80;70.05
75420;BME280;63998;52.488;13.428;2022-10-16T10:04:53;101082.16;;;17.93;69.79
75420;BME280;63998;52.488;13.428;2022-10-16T10:07:39;101076.72;;;18.02;69.21
75420;BME280;63998;52.488;13.428;2022-10-16T10:10:21;101092.97;;;18.18;68.69
75420;BME280;63998;52.488;13.428;2022-10-16T10:12:47;101097.59;;;18.08;68.55
75420;BME280;63998;52.488;13.428;2022-10-16T10:15:15;101101.09;;;18.07;68.25
75420;BME280;63998;52.488;13.428;2022-10-16T10:17:56;101097.50;;;18.13;68.42
75420;BME280;63998;52.488;13.428;2022-10-16T10:22:53;101097.47;;;18.14;68.61
75420;BME280;63998;52.488;13.428;2022-10-16T10:30:15;101095.56;;;18.19;68.00
75420;BME280;63998;52.488;13.428;2022-10-16T10:33:07;101093.63;;;18.27;67.85
75420;BME280;63998;52.488;13.428;2022-10-16T10:35:46;101107.47;;;18.36;67.56
75420;BME280;63998;52.488;13.428;2022-10-16T10:54:51;101108.63;;;19.26;62.72
75420;BME280;63998;52.488;13.428;2022-10-16T10:57:34;101111.63;;;19.14;62.73
75420;BME280;63998;52.488;13.428;2022-10-16T11:02:48;101108.63;;;19.26;62.45
75420;BME280;63998;52.488;13.428;2022-10-16T11:05:26;101107.59;;;19.31;61.60
75420;BME280;63998;52.488;13.428;2022-10-16T11:07:58;101109.59;;;19.54;60.44
75420;BME280;63998;52.488;13.428;2022-10-16T11:10:42;101116.34;;;19.64;59.09
75420;BME280;63998;52.488;13.428;2022-10-16T11:15:58;101128.41;;;19.71;58.86
75420;BME280;63998;52.488;13.428;2022-10-16T11:18:32;101116.50;;;19.58;59.16
75420;BME280;63998;52.488;13.428;2022-10-16T11:21:05;101120.13;;;19.54;58.57
75420;BME280;63998;52.488;13.428;2022-10-16T11:23:41;101120.13;;;19.54;58.71
75420;BME280;63998;52.488;13.428;2022-10-16T11:26:16;101119.78;;;19.35;58.64
75420;BME280;63998;52.488;13.428;2022-10-16T11:28:51;101119.06;;;19.29;58.87
75420;BME280;63998;52.488;13.428;2022-10-16T11:39:21;101120.50;;;19.71;56.82
75420;BME280;63998;52.488;13.428;2022-10-16T11:44:35;101120.38;;;20.04;55.27
75420;BME280;63998;52.488;13.428;2022-10-16T11:50:26;101114.63;;;20.19;53.84
75420;BME280;63998;52.488;13.428;2022-10-16T11:53:03;101117.66;;;20.07;54.09
75420;BME280;63998;52.488;13.428;2022-10-16T11:55:36;101119.69;;;19.99;53.53
75420;BME280;63998;52.488;13.428;2022-10-16T11:58:29;101121.25;;;19.77;53.45
75420;BME280;63998;52.488;13.428;2022-10-16T12:01:15;101127.59;;;19.69;53.29
75420;BME280;63998;52.488;13.428;2022-10-16T12:04:30;101136.22;;;19.76;53.39
75420;BME280;63998;52.488;13.428;2022-10-16T12:06:46;101125.25;;;19.90;52.90
75420;BME280;63998;52.488;13.428;2022-10-16T12:09:26;101133.75;;;19.99;52.71
75420;BME280;63998;52.488;13.428;2022-10-16T12:11:52;101139.13;;;19.95;52.89
75420;BME280;63998;52.488;13.428;2022-10-16T12:17:00;101147.66;;;20.60;50.27
75420;BME280;63998;52.488;13.428;2022-10-16T12:19:28;101146.31;;;21.00;49.30
75420;BME280;63998;52.488;13.428;2022-10-16T12:22:00;101151.06;;;21.40;48.25
75420;BME280;63998;52.488;13.428;2022-10-16T12:26:54;101146.75;;;21.62;47.88
75420;BME280;63998;52.488;13.428;2022-10-16T12:29:31;101151.28;;;22.05;46.62
75420;BME280;63998;52.488;13.428;2022-10-16T12:32:03;101157.44;;;22.06;46.97
75420;BME280;63998;52.488;13.428;2022-10-16T12:34:38;101142.56;;;22.25;46.25
75420;BME280;63998;52.488;13.428;2022-10-16T12:37:22;101148.06;;;22.63;46.00
75420;BME280;63998;52.488;13.428;2022-10-16T12:39:49;101153.84;;;22.50;45.84
75420;BME280;63998;52.488;13.428;2022-10-16T12:44:46;101147.81;;;22.90;45.28
75420;BME280;63998;52.488;13.428;2022-10-16T12:47:36;101147.88;;;23.09;44.03
75420;BME280;63998;52.488;13.428;2022-10-16T12:50:21;101152.47;;;23.65;42.35
75420;BME280;63998;52.488;13.428;2022-10-16T12:52:48;101163.50;;;23.56;41.58
75420;BME280;63998;52.488;13.428;2022-10-16T12:55:18;101159.53;;;23.05;42.61
75420;BME280;63998;52.488;13.428;2022-10-16T13:00:44;101148.06;;;23.45;41.93
75420;BME280;63998;52.488;13.428;2022-10-16T13:16:50;101165.72;;;24.23;39.20
75420;BME280;63998;52.488;13.428;2022-10-16T13:19:30;101182.19;;;22.92;41.36
75420;BME280;63998;52.488;13.428;2022-10-16T13:30:20;101191.88;;;23.13;42.91
75420;BME280;63998;52.488;13.428;2022-10-16T13:32:49;101197.56;;;23.45;41.69
75420;BME280;63998;52.488;13.428;2022-10-16T13:35:30;101203.88;;;22.58;43.54
75420;BME280;63998;52.488;13.428;2022-10-16T13:38:12;101206.00;;;21.80;44.68
75420;BME280;63998;52.488;13.428;2022-10-16T13:40:52;101204.47;;;21.49;45.83
75420;BME280;63998;52.488;13.428;2022-10-16T13:43:20;101198.72;;;22.77;43.52
75420;BME280;63998;52.488;13.428;2022-10-16T13:46:01;101203.34;;;23.34;42.80
75420;BME280;63998;52.488;13.428;2022-10-16T13:48:28;101197.53;;;23.85;41.44
75420;BME280;63998;52.488;13.428;2022-10-16T13:51:12;101201.16;;;23.44;41.83
75420;BME280;63998;52.488;13.428;2022-10-16T13:53:38;101197.09;;;24.13;40.95
75420;BME280;63998;52.488;13.428;2022-10-16T13:56:10;101216.59;;;23.34;41.68
75420;BME280;63998;52.488;13.428;2022-10-16T13:58:36;101206.59;;;22.56;43.65
75420;BME280;63998;52.488;13.428;2022-10-16T14:01:06;101210.31;;;23.37;42.53
75420;BME280;63998;52.488;13.428;2022-10-16T14:03:43;101213.38;;;23.87;41.08
75420;BME280;63998;52.488;13.428;2022-10-16T14:06:16;101218.13;;;22.99;42.49
75420;BME280;63998;52.488;13.428;2022-10-16T14:08:52;101211.38;;;22.90;43.78
75420;BME280;63998;52.488;13.428;2022-10-16T14:11:22;101223.59;;;23.57;42.22
75420;BME280;63998;52.488;13.428;2022-10-16T14:13:51;101216.75;;;24.65;40.89
75420;BME280;63998;52.488;13.428;2022-10-16T14:16:22;101219.81;;;24.94;39.20
75420;BME280;63998;52.488;13.428;2022-10-16T14:19:06;101218.53;;;25.70;37.75
75420;BME280;63998;52.488;13.428;2022-10-16T14:21:44;101224.91;;;25.33;38.27
75420;BME280;63998;52.488;13.428;2022-10-16T14:24:19;101225.59;;;25.71;37.90
75420;BME280;63998;52.488;13.428;2022-10-16T14:26:49;101220.72;;;26.28;36.88
75420;BME280;63998;52.488;13.428;2022-10-16T14:29:20;101222.38;;;26.13;36.76
75420;BME280;63998;52.488;13.428;2022-10-16T14:31:59;101215.38;;;26.28;36.59
75420;BME280;63998;52.488;13.428;2022-10-16T14:34:33;101219.66;;;26.46;36.13
75420;BME280;63998;52.488;13.428;2022-10-16T14:37:26;101217.69;;;26.50;36.36